sensor_id;sensor_type;location;lat;lon;timestamp;pressure;altitude;pressure_sealevel;temperature;humidity
34921;BME280;21128;50.016;20.002;2023-12-20T00:01:37;98301.92;;;6.95;49.47
34921;BME280;21128;50.016;20.002;2023-12-20T00:04:23;98302.11;;;6.91;49.87
34921;BME280;21128;50.016;20.002;2023-12-20T00:07:15;98300.95;;;6.87;49.37
34921;BME280;21128;50.016;20.002;2023-12-20T00:10:08;98296.90;;;6.81;49.98
34921;BME280;21128;50.016;20.002;2023-12-20T00:13:00;98290.64;;;6.75;50.19
34921;BME280;21128;50.016;20.002;2023-12-20T00:15:45;98289.84;;;6.70;49.92
34921;BME280;21128;50.016;20.002;2023-12-20T00:18:30;98291.02;;;6.64;50.43
34921;BME280;21128;50.016;20.002;2023-12-20T00:21:16;98286.83;;;6.59;50.15
34921;BME280;21128;50.016;20.002;2023-12-20T00:24:02;98283.69;;;6.53;50.47
34921;BME280;21128;50.016;20.002;2023-12-20T00:26:47;98286.43;;;6.47;50.57
34921;BME280;21128;50.016;20.002;2023-12-20T00:29:32;98284.46;;;6.41;50.34
34921;BME280;21128;50.016;20.002;2023-12-20T00:32:18;98278.46;;;6.36;50.74
34921;BME280;21128;50.016;20.002;2023-12-20T00:35:04;98281.91;;;6.32;50.85
34921;BME280;21128;50.016;20.002;2023-12-20T00:37:49;98270.66;;;6.30;51.01
34921;BME280;21128;50.016;20.002;2023-12-20T00:40:35;98270.12;;;6.28;51.15
34921;BME280;21128;50.016;20.002;2023-12-20T00:43:20;98264.04;;;6.26;51.17
34921;BME280;21128;50.016;20.002;2023-12-20T00:46:06;98258.52;;;6.27;51.27
34921;BME280;21128;50.016;20.002;2023-12-20T00:48:51;98254.05;;;6.31;51.24
34921;BME280;21128;50.016;20.002;2023-12-20T00:51:37;98252.10;;;6.37;51.13
34921;BME280;21128;50.016;20.002;2023-12-20T00:54:22;98248.73;;;6.46;50.95
34921;BME280;21128;50.016;20.002;2023-12-20T00:57:08;98248.46;;;6.54;51.00
34921;BME280;21128;50.016;20.002;2023-12-20T00:59:53;98252.27;;;6.56;51.09
34921;BME280;21128;50.016;20.002;2023-12-20T01:02:39;98245.67;;;6.56;51.04
34921;BME280;21128;50.016;20.002;2023-12-20T01:05:31;98249.20;;;6.53;51.07
34921;BME280;21128;50.016;20.002;2023-12-20T01:08:16;98244.84;;;6.49;51.21
34921;BME280;21128;50.016;20.002;2023-12-20T01:11:04;98242.07;;;6.46;51.20
34921;BME280;21128;50.016;20.002;2023-12-20T01:13:57;98248.61;;;6.43;51.41
34921;BME280;21128;50.016;20.002;2023-12-20T01:16:42;98250.21;;;6.39;51.39
34921;BME280;21128;50.016;20.002;2023-12-20T01:19:27;98254.73;;;6.37;51.52
34921;BME280;21128;50.016;20.002;2023-12-20T01:22:14;98247.86;;;6.36;51.43
34921;BME280;21128;50.016;20.002;2023-12-20T01:25:00;98240.41;;;6.34;51.71
34921;BME280;21128;50.016;20.002;2023-12-20T01:27:45;98231.79;;;6.33;51.66
34921;BME280;21128;50.016;20.002;2023-12-20T01:30:38;98222.65;;;6.34;51.54
34921;BME280;21128;50.016;20.002;2023-12-20T01:33:23;98224.65;;;6.35;51.56
34921;BME280;21128;50.016;20.002;2023-12-20T01:36:09;98219.77;;;6.37;51.47
34921;BME280;21128;50.016;20.002;2023-12-20T01:38:54;98212.66;;;6.38;51.27
34921;BME280;21128;50.016;20.002;2023-12-20T01:41:39;98205.80;;;6.39;51.55
34921;BME280;21128;50.016;20.002;2023-12-20T01:44:25;98193.64;;;6.39;51.48
34921;BME280;21128;50.016;20.002;2023-12-20T01:47:12;98184.16;;;6.38;51.59
34921;BME280;21128;50.016;20.002;2023-12-20T01:49:57;98178.14;;;6.35;51.67
34921;BME280;21128;50.016;20.002;2023-12-20T01:52:43;98173.47;;;6.31;51.67
34921;BME280;21128;50.016;20.002;2023-12-20T01:55:33;98165.52;;;6.27;51.70
34921;BME280;21128;50.016;20.002;2023-12-20T01:58:20;98163.92;;;6.23;51.57
34921;BME280;21128;50.016;20.002;2023-12-20T02:01:05;98160.14;;;6.22;51.79
34921;BME280;21128;50.016;20.002;2023-12-20T02:03:51;98164.14;;;6.24;51.39
34921;BME280;21128;50.016;20.002;2023-12-20T02:06:52;98161.20;;;6.32;51.17
34921;BME280;21128;50.016;20.002;2023-12-20T02:09:39;98150.79;;;6.40;51.22
34921;BME280;21128;50.016;20.002;2023-12-20T02:12:25;98145.80;;;6.43;50.82
34921;BME280;21128;50.016;20.002;2023-12-20T02:15:18;98140.35;;;6.45;50.96
34921;BME280;21128;50.016;20.002;2023-12-20T02:18:04;98142.90;;;6.48;50.63
34921;BME280;21128;50.016;20.002;2023-12-20T02:20:50;98139.96;;;6.54;50.45
34921;BME280;21128;50.016;20.002;2023-12-20T02:23:36;98136.71;;;6.60;50.32
34921;BME280;21128;50.016;20.002;2023-12-20T02:26:21;98134.93;;;6.64;50.15
34921;BME280;21128;50.016;20.002;2023-12-20T02:29:07;98130.14;;;6.67;49.68
34921;BME280;21128;50.016;20.002;2023-12-20T02:31:58;98121.81;;;6.73;49.65
34921;BME280;21128;50.016;20.002;2023-12-20T02:34:45;98118.14;;;6.77;49.36
34921;BME280;21128;50.016;20.002;2023-12-20T02:37:33;98123.34;;;6.81;49.10
34921;BME280;21128;50.016;20.002;2023-12-20T02:40:19;98121.83;;;6.86;48.90
34921;BME280;21128;50.016;20.002;2023-12-20T02:43:04;98121.35;;;6.90;48.75
34921;BME280;21128;50.016;20.002;2023-12-20T02:45:49;98118.38;;;6.92;48.85
34921;BME280;21128;50.016;20.002;2023-12-20T02:48:35;98112.30;;;6.93;48.64
34921;BME280;21128;50.016;20.002;2023-12-20T02:51:20;98108.38;;;6.93;48.61
34921;BME280;21128;50.016;20.002;2023-12-20T02:54:06;98106.49;;;6.94;48.42
34921;BME280;21128;50.016;20.002;2023-12-20T02:56:52;98108.95;;;6.94;48.10
34921;BME280;21128;50.016;20.002;2023-12-20T02:59:38;98120.79;;;6.96;47.66
34921;BME280;21128;50.016;20.002;2023-12-20T03:02:23;98127.35;;;6.96;47.73
34921;BME280;21128;50.016;20.002;2023-12-20T03:05:09;98134.89;;;6.96;47.42
34921;BME280;21128;50.016;20.002;2023-12-20T03:08:00;98133.14;;;6.94;47.18
34921;BME280;21128;50.016;20.002;2023-12-20T03:10:46;98129.72;;;6.95;46.73
34921;BME280;21128;50.016;20.002;2023-12-20T03:13:37;98126.95;;;6.95;46.76
34921;BME280;21128;50.016;20.002;2023-12-20T03:16:23;98125.58;;;6.95;46.73
34921;BME280;21128;50.016;20.002;2023-12-20T03:19:09;98122.83;;;6.95;46.83
34921;BME280;21128;50.016;20.002;2023-12-20T03:21:54;98124.26;;;6.94;46.45
34921;BME280;21128;50.016;20.002;2023-12-20T03:24:40;98121.18;;;6.92;46.82
34921;BME280;21128;50.016;20.002;2023-12-20T03:27:25;98124.64;;;6.84;46.55
34921;BME280;21128;50.016;20.002;2023-12-20T03:30:11;98116.79;;;6.76;47.16
34921;BME280;21128;50.016;20.002;2023-12-20T03:32:56;98117.30;;;6.69;47.28
34921;BME280;21128;50.016;20.002;2023-12-20T03:35:42;98123.98;;;6.64;47.33
34921;BME280;21128;50.016;20.002;2023-12-20T03:38:27;98127.29;;;6.62;47.32
34921;BME280;21128;50.016;20.002;2023-12-20T03:41:13;98123.49;;;6.62;47.34
34921;BME280;21128;50.016;20.002;2023-12-20T03:43:58;98121.88;;;6.60;47.70
34921;BME280;21128;50.016;20.002;2023-12-20T03:46:44;98129.43;;;6.60;47.53
34921;BME280;21128;50.016;20.002;2023-12-20T03:49:31;98131.61;;;6.59;47.38
34921;BME280;21128;50.016;20.002;2023-12-20T03:52:16;98131.34;;;6.60;47.66
34921;BME280;21128;50.016;20.002;2023-12-20T03:55:02;98130.34;;;6.61;47.90
34921;BME280;21128;50.016;20.002;2023-12-20T03:57:47;98131.85;;;6.62;47.89
34921;BME280;21128;50.016;20.002;2023-12-20T04:00:33;98127.45;;;6.62;48.00
34921;BME280;21128;50.016;20.002;2023-12-20T04:03:18;98129.52;;;6.62;47.95
34921;BME280;21128;50.016;20.002;2023-12-20T04:06:16;98125.66;;;6.63;48.14
34921;BME280;21128;50.016;20.002;2023-12-20T04:09:02;98125.23;;;6.62;48.33
34921;BME280;21128;50.016;20.002;2023-12-20T04:11:54;98116.52;;;6.62;48.15
34921;BME280;21128;50.016;20.002;2023-12-20T04:14:45;98119.32;;;6.62;48.37
34921;BME280;21128;50.016;20.002;2023-12-20T04:17:31;98112.86;;;6.62;48.23
34921;BME280;21128;50.016;20.002;2023-12-20T04:20:17;98109.89;;;6.64;48.11
34921;BME280;21128;50.016;20.002;2023-12-20T04:23:02;98113.39;;;6.66;48.21
34921;BME280;21128;50.016;20.002;2023-12-20T04:25:48;98110.13;;;6.67;48.25
34921;BME280;21128;50.016;20.002;2023-12-20T04:28:33;98114.61;;;6.68;48.32
34921;BME280;21128;50.016;20.002;2023-12-20T04:31:19;98108.40;;;6.67;48.45
34921;BME280;21128;50.016;20.002;2023-12-20T04:34:04;98107.39;;;6.67;48.54
34921;BME280;21128;50.016;20.002;2023-12-20T04:36:49;98114.25;;;6.66;48.60
34921;BME280;21128;50.016;20.002;2023-12-20T04:39:35;98112.86;;;6.64;48.80
34921;BME280;21128;50.016;20.002;2023-12-20T04:42:21;98120.91;;;6.63;48.81
34921;BME280;21128;50.016;20.002;2023-12-20T04:45:06;98121.58;;;6.62;48.98
34921;BME280;21128;50.016;20.002;2023-12-20T04:47:52;98121.30;;;6.61;48.96
34921;BME280;21128;50.016;20.002;2023-12-20T04:50:39;98123.14;;;6.62;49.05
34921;BME280;21128;50.016;20.002;2023-12-20T04:53:24;98126.14;;;6.61;48.97
34921;BME280;21128;50.016;20.002;2023-12-20T04:56:10;98125.81;;;6.61;48.85
34921;BME280;21128;50.016;20.002;2023-12-20T04:58:55;98130.26;;;6.62;49.05
34921;BME280;21128;50.016;20.002;2023-12-20T05:01:41;98131.48;;;6.62;49.16
34921;BME280;21128;50.016;20.002;2023-12-20T05:04:26;98134.21;;;6.61;49.81
34921;BME280;21128;50.016;20.002;2023-12-20T05:07:25;98130.20;;;6.61;50.20
34921;BME280;21128;50.016;20.002;2023-12-20T05:10:18;98128.14;;;6.58;50.91
34921;BME280;21128;50.016;20.002;2023-12-20T05:13:03;98124.68;;;6.56;51.32
34921;BME280;21128;50.016;20.002;2023-12-20T05:15:49;98120.90;;;6.52;52.28
34921;BME280;21128;50.016;20.002;2023-12-20T05:18:34;98116.19;;;6.45;53.32
34921;BME280;21128;50.016;20.002;2023-12-20T05:21:20;98123.94;;;6.38;54.11
34921;BME280;21128;50.016;20.002;2023-12-20T05:24:05;98128.29;;;6.31;54.51
34921;BME280;21128;50.016;20.002;2023-12-20T05:26:51;98127.59;;;6.22;55.81
34921;BME280;21128;50.016;20.002;2023-12-20T05:29:36;98123.52;;;6.13;57.01
34921;BME280;21128;50.016;20.002;2023-12-20T05:32:21;98117.67;;;6.05;57.47
34921;BME280;21128;50.016;20.002;2023-12-20T05:35:07;98115.55;;;5.97;58.42
34921;BME280;21128;50.016;20.002;2023-12-20T05:37:53;98116.80;;;5.90;59.10
34921;BME280;21128;50.016;20.002;2023-12-20T05:40:41;98114.91;;;5.83;60.01
34921;BME280;21128;50.016;20.002;2023-12-20T05:43:27;98113.75;;;5.77;60.32
34921;BME280;21128;50.016;20.002;2023-12-20T05:46:12;98117.37;;;5.73;60.65
34921;BME280;21128;50.016;20.002;2023-12-20T05:48:58;98113.20;;;5.69;61.16
34921;BME280;21128;50.016;20.002;2023-12-20T05:51:43;98110.27;;;5.62;62.80
34921;BME280;21128;50.016;20.002;2023-12-20T05:54:28;98112.83;;;5.55;63.64
34921;BME280;21128;50.016;20.002;2023-12-20T05:57:14;98108.52;;;5.48;64.64
34921;BME280;21128;50.016;20.002;2023-12-20T06:00:00;98101.29;;;5.41;64.91
34921;BME280;21128;50.016;20.002;2023-12-20T06:02:45;98098.55;;;5.36;66.28
34921;BME280;21128;50.016;20.002;2023-12-20T06:05:31;98108.88;;;5.31;67.48
34921;BME280;21128;50.016;20.002;2023-12-20T06:08:23;98114.02;;;5.26;68.45
34921;BME280;21128;50.016;20.002;2023-12-20T06:11:08;98114.48;;;5.20;68.97
34921;BME280;21128;50.016;20.002;2023-12-20T06:13:53;98125.57;;;5.16;70.55
34921;BME280;21128;50.016;20.002;2023-12-20T06:16:45;98130.15;;;5.11;70.68
34921;BME280;21128;50.016;20.002;2023-12-20T06:19:31;98126.36;;;5.08;71.01
34921;BME280;21128;50.016;20.002;2023-12-20T06:22:17;98127.48;;;5.06;72.01
34921;BME280;21128;50.016;20.002;2023-12-20T06:25:02;98131.34;;;5.03;72.72
34921;BME280;21128;50.016;20.002;2023-12-20T06:27:48;98131.01;;;5.01;74.04
34921;BME280;21128;50.016;20.002;2023-12-20T06:30:33;98132.04;;;4.99;75.25
34921;BME280;21128;50.016;20.002;2023-12-20T06:33:19;98133.98;;;4.96;75.44
34921;BME280;21128;50.016;20.002;2023-12-20T06:36:07;98138.95;;;4.95;76.60
34921;BME280;21128;50.016;20.002;2023-12-20T06:38:54;98136.05;;;4.92;77.46
34921;BME280;21128;50.016;20.002;2023-12-20T06:41:40;98136.52;;;4.91;77.90
34921;BME280;21128;50.016;20.002;2023-12-20T06:44:25;98130.87;;;4.90;78.56
34921;BME280;21128;50.016;20.002;2023-12-20T06:47:11;98123.56;;;4.88;79.43
34921;BME280;21128;50.016;20.002;2023-12-20T06:49:56;98127.05;;;4.87;79.80
34921;BME280;21128;50.016;20.002;2023-12-20T06:52:42;98127.86;;;4.86;80.24
34921;BME280;21128;50.016;20.002;2023-12-20T06:55:27;98132.29;;;4.85;80.51
34921;BME280;21128;50.016;20.002;2023-12-20T06:58:13;98127.92;;;4.83;81.69
34921;BME280;21128;50.016;20.002;2023-12-20T07:00:58;98129.02;;;4.80;83.07
34921;BME280;21128;50.016;20.002;2023-12-20T07:03:45;98133.06;;;4.75;85.00
34921;BME280;21128;50.016;20.002;2023-12-20T07:06:31;98133.30;;;4.70;86.77
34921;BME280;21128;50.016;20.002;2023-12-20T07:09:23;98135.60;;;4.65;88.34
34921;BME280;21128;50.016;20.002;2023-12-20T07:12:14;98129.09;;;4.62;88.89
34921;BME280;21128;50.016;20.002;2023-12-20T07:15:00;98135.05;;;4.59;88.36
34921;BME280;21128;50.016;20.002;2023-12-20T07:17:45;98138.66;;;4.57;88.37
34921;BME280;21128;50.016;20.002;2023-12-20T07:20:31;98139.48;;;4.56;90.31
34921;BME280;21128;50.016;20.002;2023-12-20T07:23:16;98147.17;;;4.52;92.22
34921;BME280;21128;50.016;20.002;2023-12-20T07:26:02;98150.77;;;4.49;93.94
34921;BME280;21128;50.016;20.002;2023-12-20T07:28:49;98149.26;;;4.46;95.33
34921;BME280;21128;50.016;20.002;2023-12-20T07:31:35;98150.17;;;4.43;98.55
34921;BME280;21128;50.016;20.002;2023-12-20T07:34:21;98143.25;;;4.41;99.41
34921;BME280;21128;50.016;20.002;2023-12-20T07:37:10;98147.02;;;4.40;100.00
34921;BME280;21128;50.016;20.002;2023-12-20T07:39:57;98150.55;;;4.39;100.00
34921;BME280;21128;50.016;20.002;2023-12-20T07:42:42;98155.61;;;4.36;100.00
34921;BME280;21128;50.016;20.002;2023-12-20T07:45:28;98157.52;;;4.34;100.00
34921;BME280;21128;50.016;20.002;2023-12-20T07:48:15;98157.66;;;4.32;100.00
34921;BME280;21128;50.016;20.002;2023-12-20T07:51:01;98157.19;;;4.31;100.00
34921;BME280;21128;50.016;20.002;2023-12-20T07:53:47;98159.89;;;4.32;100.00
34921;BME280;21128;50.016;20.002;2023-12-20T07:56:33;98158.95;;;4.31;100.00
34921;BME280;21128;50.016;20.002;2023-12-20T07:59:25;98158.66;;;4.30;100.00
34921;BME280;21128;50.016;20.002;2023-12-20T08:02:11;98167.34;;;4.30;100.00
34921;BME280;21128;50.016;20.002;2023-12-20T08:05:03;98165.10;;;4.30;100.00
34921;BME280;21128;50.016;20.002;2023-12-20T08:08:03;98159.71;;;4.32;100.00
34921;BME280;21128;50.016;20.002;2023-12-20T08:10:48;98164.73;;;4.32;100.00
34921;BME280;21128;50.016;20.002;2023-12-20T08:13:40;98159.13;;;4.33;100.00
34921;BME280;21128;50.016;20.002;2023-12-20T08:16:26;98158.62;;;4.35;100.00
34921;BME280;21128;50.016;20.002;2023-12-20T08:19:12;98156.30;;;4.36;100.00
34921;BME280;21128;50.016;20.002;2023-12-20T08:22:01;98157.98;;;4.39;100.00
34921;BME280;21128;50.016;20.002;2023-12-20T08:24:47;98157.39;;;4.40;100.00
34921;BME280;21128;50.016;20.002;2023-12-20T08:27:33;98157.36;;;4.38;100.00
34921;BME280;21128;50.016;20.002;2023-12-20T08:30:19;98157.59;;;4.37;100.00
34921;BME280;21128;50.016;20.002;2023-12-20T08:33:06;98154.97;;;4.38;100.00
34921;BME280;21128;50.016;20.002;2023-12-20T08:35:59;98158.61;;;4.38;100.00
34921;BME280;21128;50.016;20.002;2023-12-20T08:38:44;98155.42;;;4.38;100.00
34921;BME280;21128;50.016;20.002;2023-12-20T08:41:29;98159.08;;;4.40;100.00
34921;BME280;21128;50.016;20.002;2023-12-20T08:44:15;98159.71;;;4.41;100.00
34921;BME280;21128;50.016;20.002;2023-12-20T08:47:00;98154.61;;;4.40;100.00
34921;BME280;21128;50.016;20.002;2023-12-20T08:49:46;98152.81;;;4.41;100.00
34921;BME280;21128;50.016;20.002;2023-12-20T08:52:32;98160.83;;;4.40;100.00
34921;BME280;21128;50.016;20.002;2023-12-20T08:55:22;98164.95;;;4.39;100.00
34921;BME280;21128;50.016;20.002;2023-12-20T08:58:07;98156.23;;;4.37;100.00
34921;BME280;21128;50.016;20.002;2023-12-20T09:00:53;98151.52;;;4.37;100.00
34921;BME280;21128;50.016;20.002;2023-12-20T09:03:39;98152.78;;;4.36;100.00
34921;BME280;21128;50.016;20.002;2023-12-20T09:06:31;98157.98;;;4.37;100.00
34921;BME280;21128;50.016;20.002;2023-12-20T09:09:32;98154.44;;;4.36;100.00
34921;BME280;21128;50.016;20.002;2023-12-20T09:12:25;98160.91;;;4.35;100.00
34921;BME280;21128;50.016;20.002;2023-12-20T09:15:10;98166.73;;;4.32;100.00
34921;BME280;21128;50.016;20.002;2023-12-20T09:18:02;98160.67;;;4.29;100.00
34921;BME280;21128;50.016;20.002;2023-12-20T09:21:01;98155.30;;;4.27;100.00
34921;BME280;21128;50.016;20.002;2023-12-20T09:23:47;98148.16;;;4.27;100.00
34921;BME280;21128;50.016;20.002;2023-12-20T09:26:33;98153.92;;;4.27;100.00
34921;BME280;21128;50.016;20.002;2023-12-20T09:29:19;98154.83;;;4.23;100.00
34921;BME280;21128;50.016;20.002;2023-12-20T09:32:04;98164.89;;;4.21;100.00
34921;BME280;21128;50.016;20.002;2023-12-20T09:34:50;98156.80;;;4.20;100.00
34921;BME280;21128;50.016;20.002;2023-12-20T09:37:35;98150.35;;;4.21;100.00
34921;BME280;21128;50.016;20.002;2023-12-20T09:40:22;98144.67;;;4.18;100.00
34921;BME280;21128;50.016;20.002;2023-12-20T09:43:14;98139.08;;;4.16;100.00
34921;BME280;21128;50.016;20.002;2023-12-20T09:46:03;98137.70;;;4.14;100.00
34921;BME280;21128;50.016;20.002;2023-12-20T09:48:56;98138.40;;;4.14;100.00
34921;BME280;21128;50.016;20.002;2023-12-20T09:51:43;98133.02;;;4.14;100.00
34921;BME280;21128;50.016;20.002;2023-12-20T09:54:30;98136.74;;;4.15;100.00
34921;BME280;21128;50.016;20.002;2023-12-20T09:57:16;98131.55;;;4.13;100.00
34921;BME280;21128;50.016;20.002;2023-12-20T10:00:09;98131.39;;;4.10;100.00
34921;BME280;21128;50.016;20.002;2023-12-20T10:03:00;98127.58;;;4.09;100.00
34921;BME280;21128;50.016;20.002;2023-12-20T10:05:46;98126.48;;;4.09;100.00
34921;BME280;21128;50.016;20.002;2023-12-20T10:08:40;98120.23;;;4.09;100.00
34921;BME280;21128;50.016;20.002;2023-12-20T10:11:26;98118.14;;;4.09;100.00
34921;BME280;21128;50.016;20.002;2023-12-20T10:14:13;98115.09;;;4.08;100.00
34921;BME280;21128;50.016;20.002;2023-12-20T10:17:03;98113.26;;;4.08;100.00
34921;BME280;21128;50.016;20.002;2023-12-20T10:19:55;98113.58;;;4.08;100.00
34921;BME280;21128;50.016;20.002;2023-12-20T10:22:41;98116.31;;;4.07;100.00
34921;BME280;21128;50.016;20.002;2023-12-20T10:25:28;98116.02;;;4.03;100.00
34921;BME280;21128;50.016;20.002;2023-12-20T10:28:16;98111.97;;;4.02;100.00
34921;BME280;21128;50.016;20.002;2023-12-20T10:31:08;98121.08;;;4.01;100.00
34921;BME280;21128;50.016;20.002;2023-12-20T10:34:01;98119.92;;;3.98;100.00
34921;BME280;21128;50.016;20.002;2023-12-20T10:36:48;98118.45;;;3.97;100.00
34921;BME280;21128;50.016;20.002;2023-12-20T10:39:34;98120.81;;;3.95;100.00
34921;BME280;21128;50.016;20.002;2023-12-20T10:42:21;98116.31;;;3.95;100.00
34921;BME280;21128;50.016;20.002;2023-12-20T10:45:07;98120.33;;;3.92;100.00
34921;BME280;21128;50.016;20.002;2023-12-20T10:47:53;98118.77;;;3.90;100.00
34921;BME280;21128;50.016;20.002;2023-12-20T10:50:39;98110.14;;;3.88;100.00
34921;BME280;21128;50.016;20.002;2023-12-20T10:53:26;98109.27;;;3.85;100.00
34921;BME280;21128;50.016;20.002;2023-12-20T10:56:15;98102.24;;;3.84;100.00
34921;BME280;21128;50.016;20.002;2023-12-20T10:59:02;98102.95;;;3.84;100.00
34921;BME280;21128;50.016;20.002;2023-12-20T11:01:54;98094.83;;;3.84;100.00
34921;BME280;21128;50.016;20.002;2023-12-20T11:07:40;98097.63;;;3.88;100.00
34921;BME280;21128;50.016;20.002;2023-12-20T11:11:24;98107.15;;;3.88;100.00
34921;BME280;21128;50.016;20.002;2023-12-20T11:14:02;98105.88;;;3.89;100.00
34921;BME280;21128;50.016;20.002;2023-12-20T11:16:49;98105.06;;;3.88;100.00
34921;BME280;21128;50.016;20.002;2023-12-20T11:19:43;98106.52;;;3.90;100.00
34921;BME280;21128;50.016;20.002;2023-12-20T11:22:54;98103.61;;;3.93;100.00
34921;BME280;21128;50.016;20.002;2023-12-20T11:25:53;98098.45;;;3.95;100.00
34921;BME280;21128;50.016;20.002;2023-12-20T11:28:39;98105.84;;;3.99;100.00
34921;BME280;21128;50.016;20.002;2023-12-20T11:31:26;98103.52;;;3.99;100.00
34921;BME280;21128;50.016;20.002;2023-12-20T11:34:17;98107.75;;;4.01;100.00
34921;BME280;21128;50.016;20.002;2023-12-20T11:37:03;98108.58;;;3.99;100.00
34921;BME280;21128;50.016;20.002;2023-12-20T11:40:08;98097.16;;;3.99;100.00
34921;BME280;21128;50.016;20.002;2023-12-20T11:42:56;98095.45;;;4.00;100.00
34921;BME280;21128;50.016;20.002;2023-12-20T11:45:49;98100.53;;;4.02;100.00
34921;BME280;21128;50.016;20.002;2023-12-20T11:48:39;98090.23;;;4.03;100.00
34921;BME280;21128;50.016;20.002;2023-12-20T11:51:31;98087.56;;;4.08;100.00
34921;BME280;21128;50.016;20.002;2023-12-20T11:54:17;98084.29;;;4.10;100.00
34921;BME280;21128;50.016;20.002;2023-12-20T11:57:03;98083.41;;;4.13;100.00
34921;BME280;21128;50.016;20.002;2023-12-20T11:59:49;98089.48;;;4.15;100.00
34921;BME280;21128;50.016;20.002;2023-12-20T12:02:35;98089.64;;;4.15;100.00
34921;BME280;21128;50.016;20.002;2023-12-20T12:05:27;98092.77;;;4.15;100.00
34921;BME280;21128;50.016;20.002;2023-12-20T12:08:25;98087.75;;;4.14;100.00
34921;BME280;21128;50.016;20.002;2023-12-20T12:11:11;98096.48;;;4.14;100.00
34921;BME280;21128;50.016;20.002;2023-12-20T12:14:03;98100.36;;;4.13;100.00
34921;BME280;21128;50.016;20.002;2023-12-20T12:16:49;98096.83;;;4.11;100.00
34921;BME280;21128;50.016;20.002;2023-12-20T12:19:35;98093.15;;;4.12;100.00
34921;BME280;21128;50.016;20.002;2023-12-20T12:22:22;98094.04;;;4.14;100.00
34921;BME280;21128;50.016;20.002;2023-12-20T12:25:13;98097.81;;;4.12;100.00
34921;BME280;21128;50.016;20.002;2023-12-20T12:27:59;98089.47;;;4.10;100.00
34921;BME280;21128;50.016;20.002;2023-12-20T12:30:58;98089.29;;;4.08;100.00
34921;BME280;21128;50.016;20.002;2023-12-20T12:33:43;98080.35;;;4.10;100.00
34921;BME280;21128;50.016;20.002;2023-12-20T12:36:29;98075.51;;;4.12;100.00
34921;BME280;21128;50.016;20.002;2023-12-20T12:39:17;98076.27;;;4.13;100.00
34921;BME280;21128;50.016;20.002;2023-12-20T12:42:03;98073.73;;;4.12;100.00
34921;BME280;21128;50.016;20.002;2023-12-20T12:44:49;98080.23;;;4.11;100.00
34921;BME280;21128;50.016;20.002;2023-12-20T12:47:35;98076.98;;;4.10;100.00
34921;BME280;21128;50.016;20.002;2023-12-20T12:50:26;98085.41;;;4.09;100.00
34921;BME280;21128;50.016;20.002;2023-12-20T12:53:13;98086.80;;;4.09;100.00
34921;BME280;21128;50.016;20.002;2023-12-20T12:55:59;98085.02;;;4.08;100.00
34921;BME280;21128;50.016;20.002;2023-12-20T12:58:44;98085.70;;;4.08;100.00
34921;BME280;21128;50.016;20.002;2023-12-20T13:01:39;98088.93;;;4.08;100.00
34921;BME280;21128;50.016;20.002;2023-12-20T13:04:24;98092.19;;;4.09;100.00
34921;BME280;21128;50.016;20.002;2023-12-20T13:07:16;98094.85;;;4.08;100.00
34921;BME280;21128;50.016;20.002;2023-12-20T13:10:08;98088.86;;;4.09;100.00
34921;BME280;21128;50.016;20.002;2023-12-20T13:13:00;98076.19;;;4.12;100.00
34921;BME280;21128;50.016;20.002;2023-12-20T13:15:47;98078.61;;;4.14;100.00
34921;BME280;21128;50.016;20.002;2023-12-20T13:18:36;98086.35;;;4.15;100.00
34921;BME280;21128;50.016;20.002;2023-12-20T13:21:22;98092.03;;;4.15;100.00
34921;BME280;21128;50.016;20.002;2023-12-20T13:24:08;98088.66;;;4.16;100.00
34921;BME280;21128;50.016;20.002;2023-12-20T13:26:53;98090.08;;;4.18;100.00
34921;BME280;21128;50.016;20.002;2023-12-20T13:29:38;98094.16;;;4.17;100.00
34921;BME280;21128;50.016;20.002;2023-12-20T13:32:27;98096.89;;;4.17;100.00
34921;BME280;21128;50.016;20.002;2023-12-20T13:35:19;98109.38;;;4.19;100.00
34921;BME280;21128;50.016;20.002;2023-12-20T13:38:08;98105.66;;;4.20;100.00
34921;BME280;21128;50.016;20.002;2023-12-20T13:40:53;98105.56;;;4.22;100.00
34921;BME280;21128;50.016;20.002;2023-12-20T13:43:43;98100.14;;;4.24;100.00
34921;BME280;21128;50.016;20.002;2023-12-20T13:46:29;98100.02;;;4.27;100.00
34921;BME280;21128;50.016;20.002;2023-12-20T13:49:15;98100.06;;;4.28;100.00
34921;BME280;21128;50.016;20.002;2023-12-20T13:52:03;98099.30;;;4.29;100.00
34921;BME280;21128;50.016;20.002;2023-12-20T13:54:49;98101.20;;;4.29;100.00
34921;BME280;21128;50.016;20.002;2023-12-20T13:57:35;98104.99;;;4.30;100.00
34921;BME280;21128;50.016;20.002;2023-12-20T14:00:23;98101.04;;;4.29;100.00
34921;BME280;21128;50.016;20.002;2023-12-20T14:03:10;98100.85;;;4.29;100.00
34921;BME280;21128;50.016;20.002;2023-12-20T14:05:56;98097.50;;;4.30;100.00
34921;BME280;21128;50.016;20.002;2023-12-20T14:08:55;98095.95;;;4.32;100.00
34921;BME280;21128;50.016;20.002;2023-12-20T14:11:41;98095.41;;;4.32;100.00
34921;BME280;21128;50.016;20.002;2023-12-20T14:14:26;98101.03;;;4.33;100.00
34921;BME280;21128;50.016;20.002;2023-12-20T14:17:14;98099.45;;;4.34;100.00
34921;BME280;21128;50.016;20.002;2023-12-20T14:20:06;98098.66;;;4.35;100.00
34921;BME280;21128;50.016;20.002;2023-12-20T14:22:53;98107.28;;;4.35;100.00
34921;BME280;21128;50.016;20.002;2023-12-20T14:25:38;98107.97;;;4.35;100.00
34921;BME280;21128;50.016;20.002;2023-12-20T14:28:23;98098.91;;;4.36;100.00
34921;BME280;21128;50.016;20.002;2023-12-20T14:31:09;98096.17;;;4.35;100.00
34921;BME280;21128;50.016;20.002;2023-12-20T14:33:58;98099.42;;;4.34;100.00
34921;BME280;21128;50.016;20.002;2023-12-20T14:36:44;98096.88;;;4.31;100.00
34921;BME280;21128;50.016;20.002;2023-12-20T14:39:30;98106.59;;;4.29;100.00
34921;BME280;21128;50.016;20.002;2023-12-20T14:42:15;98105.31;;;4.27;100.00
34921;BME280;21128;50.016;20.002;2023-12-20T14:45:01;98107.60;;;4.27;100.00